Terminal Aerodrome Forecast
Issued by NWS Paducah, KY

Home | Current Version | Previous Version | Text Only | Print | Product List | Glossary On
Versions: 1 2 3 4 5 6 7 8 9 10 11 12 13 14 15 16 17 18
000
FTUS43 KPAH 271120
TAFPAH
TAF
KPAH 271120Z 2712/2812 20004KT P6SM BKN250
     FM271800 23008KT P6SM BKN050
      TEMPO 2720/2724 5SM -TSRA BR BKN050CB
     FM280100 20002KT P6SM SCT250=

USA.gov is the U.S. government's official web portal to all federal, state and local government web resources and services.